createdAt,value
2023-03-11T00:00:13.779Z,100.00
2023-03-11T00:01:47.083Z,100.00
2023-03-11T00:03:23.460Z,100.00
2023-03-11T00:04:56.373Z,100.00
2023-03-11T00:06:29.165Z,100.00
2023-03-11T00:08:03.016Z,100.00
2023-03-11T00:09:36.740Z,100.00
2023-03-11T00:11:09.826Z,100.00
2023-03-11T00:12:42.872Z,100.00
2023-03-11T00:14:15.891Z,100.00
2023-03-11T00:15:51.437Z,100.00
2023-03-11T00:17:24.240Z,100.00
2023-03-11T00:18:58.840Z,100.00
2023-03-11T00:20:35.540Z,100.00
2023-03-11T00:22:09.040Z,100.00
2023-03-11T00:23:42.166Z,100.00
2023-03-11T00:25:15.804Z,100.00
2023-03-11T00:26:48.755Z,100.00
2023-03-11T00:28:25.570Z,100.00
2023-03-11T00:29:58.564Z,100.00
2023-03-11T00:31:32.196Z,100.00
2023-03-11T00:33:05.360Z,100.00
2023-03-11T00:34:38.754Z,100.00
2023-03-11T00:36:24.928Z,100.00
2023-03-11T00:38:00.973Z,100.00
2023-03-11T00:39:34.493Z,100.00
2023-03-11T00:41:07.549Z,100.00
2023-03-11T00:42:40.470Z,100.00
2023-03-11T00:44:13.620Z,100.00
2023-03-11T00:45:46.758Z,100.00
2023-03-11T00:47:19.885Z,100.00
2023-03-11T00:48:53.384Z,100.00
2023-03-11T00:50:34.414Z,100.00
2023-03-11T00:52:07.447Z,100.00
2023-03-11T00:53:40.541Z,100.00
2023-03-11T00:55:15.989Z,100.00
2023-03-11T00:56:49.177Z,100.00
2023-03-11T00:58:27.485Z,100.00
2023-03-11T01:00:02.323Z,100.00
2023-03-11T01:01:36.289Z,100.00
2023-03-11T01:03:09.507Z,100.00
2023-03-11T01:04:42.848Z,100.00
2023-03-11T01:06:16.215Z,100.00
2023-03-11T01:07:49.777Z,100.00
2023-03-11T01:09:22.952Z,100.00
2023-03-11T01:10:56.064Z,100.00
2023-03-11T01:12:28.763Z,100.00
2023-03-11T01:14:01.750Z,100.00
2023-03-11T01:15:36.915Z,100.00
2023-03-11T01:17:10.374Z,100.00
2023-03-11T01:18:43.466Z,100.00
2023-03-11T01:20:17.024Z,100.00
2023-03-11T01:21:50.760Z,100.00
2023-03-11T01:23:23.747Z,100.00
2023-03-11T01:24:56.840Z,100.00
2023-03-11T01:26:29.825Z,100.00
2023-03-11T01:28:03.123Z,100.00
2023-03-11T01:29:36.374Z,100.00
2023-03-11T01:31:10.777Z,100.00
2023-03-11T01:32:44.359Z,100.00
2023-03-11T01:34:19.609Z,100.00
2023-03-11T01:35:52.705Z,100.00
2023-03-11T01:37:25.815Z,100.00
2023-03-11T01:38:58.659Z,100.00
2023-03-11T01:40:31.565Z,100.00
2023-03-11T01:42:07.364Z,100.00
2023-03-11T01:43:46.280Z,100.00
2023-03-11T01:45:40.976Z,100.00
2023-03-11T01:47:32.478Z,100.00
2023-03-11T01:49:12.072Z,100.00
2023-03-11T01:50:50.293Z,100.00
2023-03-11T01:52:23.922Z,100.00
2023-03-11T01:54:03.913Z,100.00
2023-03-11T01:55:37.325Z,100.00
2023-03-11T01:57:14.123Z,100.00
2023-03-11T01:58:50.360Z,100.00
2023-03-11T02:00:23.366Z,100.00
2023-03-11T02:02:14.971Z,100.00
2023-03-11T02:03:48.505Z,100.00
2023-03-11T02:05:23.430Z,100.00
2023-03-11T02:06:57.778Z,100.00
2023-03-11T02:08:34.375Z,100.00
2023-03-11T02:10:10.245Z,100.00
2023-03-11T02:11:43.204Z,100.00
2023-03-11T02:13:17.255Z,100.00
2023-03-11T02:14:52.540Z,100.00
2023-03-11T02:16:26.106Z,100.00
2023-03-11T02:18:00.076Z,100.00
2023-03-11T02:20:07.523Z,100.00
2023-03-11T02:21:40.910Z,100.00
2023-03-11T02:23:15.670Z,100.00
2023-03-11T02:25:04.360Z,100.00
2023-03-11T02:26:57.980Z,100.00
2023-03-11T02:28:34.396Z,100.00
2023-03-11T02:30:08.932Z,100.00
2023-03-11T02:31:44.428Z,100.00
2023-03-11T02:33:19.820Z,100.00
2023-03-11T02:34:53.656Z,100.00
2023-03-11T02:36:33.948Z,100.00
2023-03-11T02:38:07.005Z,100.00
2023-03-11T02:39:52.876Z,100.00
2023-03-11T02:41:26.160Z,100.00
2023-03-11T02:43:02.043Z,100.00
2023-03-11T02:44:35.497Z,100.00
2023-03-11T02:46:11.485Z,100.00
2023-03-11T02:47:44.964Z,100.00
2023-03-11T02:49:18.447Z,100.00
2023-03-11T02:50:52.396Z,100.00
2023-03-11T02:52:28.573Z,100.00
2023-03-11T02:54:04.634Z,100.00
2023-03-11T02:55:38.633Z,100.00
2023-03-11T02:57:12.924Z,100.00
2023-03-11T02:58:47.178Z,100.00
2023-03-11T03:00:20.734Z,100.00
2023-03-11T03:02:06.571Z,100.00
2023-03-11T03:03:39.851Z,100.00
2023-03-11T03:05:13.808Z,100.00
2023-03-11T03:06:47.492Z,100.00
2023-03-11T03:08:22.599Z,100.00
2023-03-11T03:09:55.531Z,100.00
2023-03-11T03:11:28.740Z,100.00
2023-03-11T03:13:01.620Z,100.00
2023-03-11T03:14:34.863Z,100.00
2023-03-11T03:16:08.346Z,100.00
2023-03-11T03:17:41.535Z,100.00
2023-03-11T03:19:14.545Z,100.00
2023-03-11T03:20:47.617Z,100.00
2023-03-11T03:22:25.420Z,100.00
2023-03-11T03:23:59.371Z,100.00
2023-03-11T03:25:32.477Z,100.00
2023-03-11T03:27:09.827Z,100.00
2023-03-11T03:28:43.042Z,100.00
2023-03-11T03:30:16.500Z,100.00
2023-03-11T03:31:49.476Z,100.00
2023-03-11T03:33:22.809Z,100.00
2023-03-11T03:34:59.230Z,100.00
2023-03-11T03:36:43.542Z,100.00
2023-03-11T03:38:17.098Z,100.00
2023-03-11T03:39:50.353Z,100.00
2023-03-11T03:41:24.171Z,100.00
2023-03-11T03:42:57.201Z,100.00
2023-03-11T03:44:31.036Z,100.00
2023-03-11T03:46:06.305Z,100.00
2023-03-11T03:47:45.473Z,100.00
2023-03-11T03:49:18.251Z,100.00
2023-03-11T03:50:51.580Z,100.00
2023-03-11T03:52:25.221Z,100.00
2023-03-11T03:53:58.222Z,100.00
2023-03-11T03:55:32.299Z,100.00
2023-03-11T03:57:06.261Z,100.00
2023-03-11T03:58:45.189Z,100.00
2023-03-11T04:00:18.906Z,100.00
2023-03-11T04:01:59.383Z,100.00
2023-03-11T04:03:36.203Z,100.00
2023-03-11T04:05:14.392Z,100.00
2023-03-11T04:06:48.775Z,100.00
2023-03-11T04:08:23.290Z,100.00
2023-03-11T04:09:56.178Z,100.00
2023-03-11T04:11:28.963Z,100.00
2023-03-11T04:13:02.488Z,100.00
2023-03-11T04:14:36.349Z,100.00
2023-03-11T04:16:09.279Z,100.00
2023-03-11T04:17:42.683Z,100.00
2023-03-11T04:19:15.465Z,100.00
2023-03-11T04:20:48.259Z,100.00
2023-03-11T04:22:21.595Z,100.00
2023-03-11T04:23:54.846Z,100.00
2023-03-11T04:25:34.664Z,100.00
2023-03-11T04:27:08.206Z,100.00
2023-03-11T04:28:42.113Z,100.00
2023-03-11T04:30:15.321Z,100.00
2023-03-11T04:31:50.406Z,100.00
2023-03-11T04:33:23.693Z,100.00
2023-03-11T04:34:56.679Z,100.00
2023-03-11T04:36:29.818Z,100.00
2023-03-11T04:38:02.807Z,100.00
2023-03-11T04:39:36.426Z,100.00
2023-03-11T04:41:09.339Z,100.00
2023-03-11T04:42:45.248Z,100.00
2023-03-11T04:44:18.111Z,100.00
2023-03-11T04:45:51.940Z,100.00
2023-03-11T04:47:24.964Z,100.00
2023-03-11T04:48:58.255Z,100.00
2023-03-11T04:50:31.621Z,100.00
2023-03-11T04:52:04.948Z,100.00
2023-03-11T04:53:37.973Z,100.00
2023-03-11T04:55:11.049Z,100.00
2023-03-11T04:56:44.018Z,100.00
2023-03-11T04:58:16.967Z,100.00
2023-03-11T04:59:52.111Z,100.00
2023-03-11T05:01:25.461Z,100.00
2023-03-11T05:02:58.445Z,100.00
2023-03-11T05:04:31.724Z,100.00
2023-03-11T05:06:04.999Z,100.00
2023-03-11T05:07:38.229Z,100.00
2023-03-11T05:09:12.032Z,100.00
2023-03-11T05:10:47.336Z,100.00
2023-03-11T05:12:20.139Z,98.89
2023-03-11T05:13:57.042Z,98.06
2023-03-11T05:15:31.794Z,96.67
2023-03-11T05:17:08.435Z,97.48
2023-03-11T05:18:41.535Z,97.10
2023-03-11T05:20:15.844Z,94.53
2023-03-11T05:21:49.292Z,95.21
2023-03-11T05:23:22.391Z,92.44
2023-03-11T05:24:55.228Z,89.64
2023-03-11T05:26:28.880Z,88.39
2023-03-11T05:28:01.784Z,88.65
2023-03-11T05:29:35.261Z,89.39
2023-03-11T05:31:10.419Z,87.83
2023-03-11T05:32:45.069Z,89.45
2023-03-11T05:34:18.956Z,88.69
2023-03-11T05:35:52.436Z,87.00
2023-03-11T05:37:27.236Z,87.00
2023-03-11T05:39:02.027Z,88.10
2023-03-11T05:40:37.432Z,88.38
2023-03-11T05:42:10.573Z,87.09
2023-03-11T05:43:43.482Z,87.09
2023-03-11T05:45:16.924Z,86.41
2023-03-11T05:46:52.235Z,84.57
2023-03-11T05:48:25.227Z,84.54
2023-03-11T05:49:59.001Z,82.18
2023-03-11T05:51:32.668Z,81.52
2023-03-11T05:53:05.612Z,81.75
2023-03-11T05:54:38.512Z,78.68
2023-03-11T05:56:11.294Z,76.74
2023-03-11T05:57:44.719Z,74.99
2023-03-11T05:59:18.225Z,77.03
2023-03-11T06:00:55.555Z,77.41
2023-03-11T06:02:28.671Z,79.24
2023-03-11T06:04:01.784Z,78.30
2023-03-11T06:05:34.776Z,75.26
2023-03-11T06:07:09.165Z,69.22
2023-03-11T06:08:49.948Z,68.66
2023-03-11T06:10:24.733Z,69.42
2023-03-11T06:11:58.193Z,71.62
2023-03-11T06:13:38.780Z,70.14
2023-03-11T06:15:11.835Z,69.75
2023-03-11T06:16:46.411Z,70.12
2023-03-11T06:18:19.670Z,71.18
2023-03-11T06:19:55.899Z,70.28
2023-03-11T06:21:29.061Z,69.45
2023-03-11T06:23:02.356Z,68.98
2023-03-11T06:24:35.556Z,70.57
2023-03-11T06:26:08.928Z,70.62
2023-03-11T06:27:49.004Z,70.20
2023-03-11T06:29:24.654Z,71.62
2023-03-11T06:31:07.924Z,72.00
2023-03-11T06:32:41.135Z,68.95
2023-03-11T06:34:14.076Z,65.51
2023-03-11T06:35:58.615Z,60.59
2023-03-11T06:37:31.586Z,55.77
2023-03-11T06:39:04.821Z,53.49
2023-03-11T06:40:39.227Z,52.21
2023-03-11T06:42:12.872Z,52.24
2023-03-11T06:43:47.678Z,52.22
2023-03-11T06:45:20.953Z,52.25
2023-03-11T06:46:55.155Z,51.65
2023-03-11T06:48:28.952Z,51.77
2023-03-11T06:50:06.989Z,51.53
2023-03-11T06:51:40.319Z,50.22
2023-03-11T06:53:14.449Z,50.71
2023-03-11T06:54:47.851Z,50.59
2023-03-11T06:56:23.862Z,50.53
2023-03-11T06:58:02.589Z,51.02
2023-03-11T06:59:36.603Z,51.71
2023-03-11T07:01:18.737Z,49.79
2023-03-11T07:02:52.101Z,49.51
2023-03-11T07:04:26.359Z,49.83
2023-03-11T07:06:01.084Z,49.80
2023-03-11T07:07:34.450Z,50.05
2023-03-11T07:09:09.432Z,49.03
2023-03-11T07:10:47.385Z,49.21
2023-03-11T07:12:23.284Z,49.49
2023-03-11T07:13:56.862Z,50.77
2023-03-11T07:15:30.050Z,51.54
2023-03-11T07:17:02.941Z,52.02
2023-03-11T07:18:45.964Z,51.40
2023-03-11T07:20:19.414Z,52.71
2023-03-11T07:21:52.795Z,52.67
2023-03-11T07:23:25.863Z,53.54
2023-03-11T07:24:58.825Z,53.10
2023-03-11T07:26:34.012Z,52.78
2023-03-11T07:28:06.915Z,53.15
2023-03-11T07:29:40.243Z,54.59
2023-03-11T07:31:25.746Z,54.44
2023-03-11T07:32:59.879Z,55.08
2023-03-11T07:34:33.214Z,55.38
2023-03-11T07:36:12.115Z,56.46
2023-03-11T07:37:45.317Z,57.46
2023-03-11T07:39:20.063Z,57.92
2023-03-11T07:41:00.290Z,59.37
2023-03-11T07:42:35.309Z,59.72
2023-03-11T07:44:09.932Z,58.51
2023-03-11T07:45:43.376Z,57.73
2023-03-11T07:47:16.406Z,57.99
2023-03-11T07:48:51.190Z,60.59
2023-03-11T07:50:24.408Z,61.87
2023-03-11T07:51:57.679Z,60.76
2023-03-11T07:53:30.716Z,58.78
2023-03-11T07:55:04.607Z,57.46
2023-03-11T07:56:37.670Z,55.90
2023-03-11T07:58:10.810Z,56.73
2023-03-11T07:59:44.231Z,55.35
2023-03-11T08:01:21.036Z,57.54
2023-03-11T08:02:54.115Z,57.93
2023-03-11T08:04:27.390Z,59.40
2023-03-11T08:06:00.844Z,60.56
2023-03-11T08:07:34.755Z,60.36
2023-03-11T08:09:09.856Z,60.01
2023-03-11T08:10:43.191Z,58.74
2023-03-11T08:12:16.924Z,60.47
2023-03-11T08:13:51.333Z,60.01
2023-03-11T08:15:24.315Z,59.74
2023-03-11T08:16:57.417Z,59.16
2023-03-11T08:18:31.227Z,58.59
2023-03-11T08:20:05.525Z,57.53
2023-03-11T08:21:38.462Z,57.00
2023-03-11T08:23:11.747Z,56.01
2023-03-11T08:24:44.712Z,56.72
2023-03-11T08:26:19.150Z,56.65
2023-03-11T08:27:52.223Z,58.42
2023-03-11T08:29:25.466Z,57.59
2023-03-11T08:30:58.352Z,57.73
2023-03-11T08:32:32.014Z,56.88
2023-03-11T08:34:08.072Z,57.26
2023-03-11T08:35:41.191Z,58.29
2023-03-11T08:37:14.438Z,59.00
2023-03-11T08:38:48.610Z,57.38
2023-03-11T08:40:22.007Z,57.53
2023-03-11T08:41:54.850Z,57.25
2023-03-11T08:43:27.483Z,58.24
2023-03-11T08:45:00.477Z,57.57
2023-03-11T08:46:36.425Z,58.22
2023-03-11T08:48:11.784Z,56.85
2023-03-11T08:49:44.986Z,56.27
2023-03-11T08:51:18.898Z,55.72
2023-03-11T08:52:51.905Z,56.14
2023-03-11T08:54:24.800Z,56.45
2023-03-11T08:55:57.726Z,56.25
2023-03-11T08:57:31.280Z,56.52
2023-03-11T08:59:04.333Z,57.44
2023-03-11T09:00:37.309Z,57.03
2023-03-11T09:02:10.719Z,55.29
2023-03-11T09:03:43.567Z,55.92
2023-03-11T09:05:16.417Z,54.45
2023-03-11T09:06:49.655Z,55.03
2023-03-11T09:08:22.653Z,55.00
2023-03-11T09:09:55.836Z,55.86
2023-03-11T09:11:28.843Z,54.31
2023-03-11T09:13:02.027Z,53.88
2023-03-11T09:14:36.118Z,54.80
2023-03-11T09:16:15.194Z,53.63
2023-03-11T09:17:48.097Z,53.63
2023-03-11T09:19:21.100Z,53.63
2023-03-11T09:20:58.547Z,54.01
2023-03-11T09:22:31.724Z,53.92
2023-03-11T09:24:05.487Z,53.65
2023-03-11T09:25:38.794Z,54.62
2023-03-11T09:27:13.387Z,54.49
2023-03-11T09:28:49.715Z,54.39
2023-03-11T09:30:22.868Z,54.07
2023-03-11T09:31:56.555Z,53.20
2023-03-11T09:33:31.075Z,53.18
2023-03-11T09:35:04.946Z,53.57
2023-03-11T09:36:38.047Z,52.35
2023-03-11T09:38:10.885Z,51.91
2023-03-11T09:39:44.237Z,53.30
2023-03-11T09:41:42.373Z,52.68
2023-03-11T09:43:58.605Z,52.13
2023-03-11T09:45:37.748Z,51.81
2023-03-11T09:47:37.293Z,52.73
2023-03-11T09:49:30.606Z,52.12
2023-03-11T09:51:12.656Z,51.80
2023-03-11T09:53:12.129Z,51.61
2023-03-11T09:55:06.612Z,52.50
2023-03-11T09:56:44.471Z,53.20
2023-03-11T09:58:33.066Z,53.31
2023-03-11T10:00:08.044Z,52.29
2023-03-11T10:01:51.015Z,52.06
2023-03-11T10:03:23.987Z,52.36
2023-03-11T10:05:03.197Z,52.79
2023-03-11T10:06:37.142Z,52.12
2023-03-11T10:08:25.398Z,51.56
2023-03-11T10:10:00.091Z,52.00
2023-03-11T10:11:50.398Z,52.86
2023-03-11T10:13:42.916Z,51.97
2023-03-11T10:15:28.945Z,52.21
2023-03-11T10:17:39.827Z,51.92
2023-03-11T10:19:30.524Z,53.22
2023-03-11T10:21:19.473Z,54.39
2023-03-11T10:23:09.071Z,52.48
2023-03-11T10:25:03.608Z,53.48
2023-03-11T10:26:49.673Z,54.36
2023-03-11T10:28:31.325Z,54.59
2023-03-11T10:30:32.843Z,54.71
2023-03-11T10:32:11.283Z,54.59
2023-03-11T10:33:49.415Z,54.23
2023-03-11T10:35:45.043Z,53.66
2023-03-11T10:37:20.938Z,53.59
2023-03-11T10:38:58.364Z,53.17
2023-03-11T10:40:36.193Z,53.57
2023-03-11T10:42:29.985Z,54.59
2023-03-11T10:44:21.387Z,54.16
2023-03-11T10:45:55.441Z,54.81
2023-03-11T10:47:30.155Z,54.04
2023-03-11T10:49:03.140Z,55.21
2023-03-11T10:50:36.905Z,55.15
2023-03-11T10:52:10.269Z,53.65
2023-03-11T10:53:55.255Z,52.68
2023-03-11T10:55:28.193Z,53.97
2023-03-11T10:57:01.995Z,53.32
2023-03-11T10:58:34.503Z,53.57
2023-03-11T11:00:17.373Z,52.59
2023-03-11T11:02:20.625Z,52.27
2023-03-11T11:03:56.184Z,52.09
2023-03-11T11:05:36.052Z,52.96
2023-03-11T11:07:35.180Z,52.95
2023-03-11T11:09:21.030Z,52.05
2023-03-11T11:10:57.747Z,52.41
2023-03-11T11:12:30.792Z,52.58
2023-03-11T11:14:04.660Z,52.95
2023-03-11T11:15:39.368Z,52.96
2023-03-11T11:17:34.326Z,54.28
2023-03-11T11:19:16.026Z,53.55
2023-03-11T11:20:57.411Z,53.66
2023-03-11T11:22:35.044Z,53.46
2023-03-11T11:24:29.482Z,52.58
2023-03-11T11:26:06.605Z,53.81
2023-03-11T11:27:54.548Z,53.94
2023-03-11T11:29:31.811Z,53.29
2023-03-11T11:31:09.441Z,52.65
2023-03-11T11:32:42.555Z,53.62
2023-03-11T11:34:32.279Z,53.15
2023-03-11T11:36:12.486Z,54.76
2023-03-11T11:37:54.948Z,55.08
2023-03-11T11:39:32.750Z,54.80
2023-03-11T11:41:06.299Z,54.97
2023-03-11T11:42:43.254Z,54.72
2023-03-11T11:44:21.361Z,56.47
2023-03-11T11:46:02.333Z,57.58
2023-03-11T11:47:38.558Z,57.10
2023-03-11T11:49:33.075Z,57.77
2023-03-11T11:51:40.548Z,59.48
2023-03-11T11:53:41.467Z,57.88
2023-03-11T11:55:29.539Z,57.17
2023-03-11T11:57:12.355Z,57.26
2023-03-11T11:58:46.268Z,57.34
2023-03-11T12:00:25.955Z,57.73
2023-03-11T12:02:21.238Z,57.00
2023-03-11T12:04:16.018Z,58.02
2023-03-11T12:05:52.203Z,57.14
2023-03-11T12:07:35.742Z,56.88
2023-03-11T12:09:29.997Z,56.72
2023-03-11T12:11:09.564Z,56.76
2023-03-11T12:12:48.270Z,58.13
2023-03-11T12:14:33.955Z,56.47
2023-03-11T12:16:19.138Z,56.45
2023-03-11T12:17:59.747Z,55.05
2023-03-11T12:19:35.882Z,55.14
2023-03-11T12:21:46.655Z,56.13
2023-03-11T12:23:34.692Z,55.52
2023-03-11T12:25:24.121Z,56.36
2023-03-11T12:27:03.591Z,56.21
2023-03-11T12:28:55.579Z,56.48
2023-03-11T12:30:37.169Z,55.49
2023-03-11T12:32:23.837Z,55.90
2023-03-11T12:33:59.382Z,57.80
2023-03-11T12:35:34.913Z,59.47
2023-03-11T12:37:17.265Z,57.23
2023-03-11T12:38:51.753Z,57.92
2023-03-11T12:41:01.032Z,57.43
2023-03-11T12:42:40.775Z,58.76
2023-03-11T12:44:27.149Z,58.85
2023-03-11T12:46:01.835Z,61.03
2023-03-11T12:47:35.778Z,60.47
2023-03-11T12:49:12.775Z,60.10
2023-03-11T12:50:46.289Z,60.18
2023-03-11T12:52:23.477Z,61.43
2023-03-11T12:53:57.053Z,60.48
2023-03-11T12:55:32.702Z,61.48
2023-03-11T12:57:20.883Z,60.96
2023-03-11T12:59:18.539Z,62.48
2023-03-11T13:01:17.881Z,63.26
2023-03-11T13:03:09.555Z,65.63
2023-03-11T13:05:15.881Z,66.82
2023-03-11T13:07:13.463Z,67.49
2023-03-11T13:08:55.661Z,68.98
2023-03-11T13:10:48.999Z,68.55
2023-03-11T13:12:43.071Z,69.44
2023-03-11T13:14:18.960Z,68.80
2023-03-11T13:15:55.344Z,70.16
2023-03-11T13:17:32.741Z,70.75
2023-03-11T13:19:44.585Z,70.55
2023-03-11T13:21:32.883Z,71.78
2023-03-11T13:23:14.910Z,72.86
2023-03-11T13:24:50.644Z,73.10
2023-03-11T13:26:48.838Z,73.43
2023-03-11T13:28:49.186Z,74.11
2023-03-11T13:30:32.872Z,72.58
2023-03-11T13:32:47.548Z,73.60
2023-03-11T13:34:35.540Z,75.51
2023-03-11T13:36:45.923Z,76.40
2023-03-11T13:38:43.115Z,79.10
2023-03-11T13:40:36.911Z,81.57
2023-03-11T13:42:35.994Z,81.35
2023-03-11T13:44:26.718Z,82.90
2023-03-11T13:46:28.261Z,84.23
2023-03-11T13:48:22.992Z,82.61
2023-03-11T13:50:04.054Z,84.68
2023-03-11T13:51:46.019Z,83.60
2023-03-11T13:53:28.901Z,83.43
2023-03-11T13:55:09.544Z,86.28
2023-03-11T13:56:54.506Z,83.57
2023-03-11T13:58:28.992Z,83.61
2023-03-11T14:00:19.199Z,84.43
2023-03-11T14:02:15.943Z,84.35
2023-03-11T14:03:49.158Z,84.99
2023-03-11T14:05:33.929Z,85.44
2023-03-11T14:07:38.869Z,88.26
2023-03-11T14:09:21.024Z,88.76
2023-03-11T14:10:56.487Z,89.63
2023-03-11T14:12:32.372Z,90.55
2023-03-11T14:14:58.685Z,90.47
2023-03-11T14:16:44.474Z,91.99
2023-03-11T14:18:41.514Z,90.23
2023-03-11T14:20:22.570Z,90.56
2023-03-11T14:21:55.861Z,91.10
2023-03-11T14:23:35.265Z,89.70
2023-03-11T14:25:15.316Z,91.52
2023-03-11T14:26:49.037Z,91.50
2023-03-11T14:28:22.476Z,91.90
2023-03-11T14:29:55.774Z,92.40
2023-03-11T14:31:33.450Z,91.87
2023-03-11T14:33:25.636Z,92.45
2023-03-11T14:34:59.799Z,93.09
2023-03-11T14:36:41.842Z,94.16
2023-03-11T14:38:22.749Z,94.19
2023-03-11T14:39:56.225Z,94.21
2023-03-11T14:41:36.588Z,94.76
2023-03-11T14:43:15.400Z,94.47
2023-03-11T14:44:56.033Z,94.21
2023-03-11T14:46:30.540Z,94.44
2023-03-11T14:48:29.486Z,95.02
2023-03-11T14:50:05.321Z,94.50
2023-03-11T14:51:38.700Z,94.21
2023-03-11T14:53:32.714Z,93.48
2023-03-11T14:55:13.973Z,93.56
2023-03-11T14:56:51.762Z,94.26
2023-03-11T14:58:30.666Z,94.11
2023-03-11T15:00:08.321Z,93.87
2023-03-11T15:01:44.432Z,94.19
2023-03-11T15:03:27.269Z,93.61
2023-03-11T15:05:06.867Z,93.21
2023-03-11T15:06:48.856Z,93.26
2023-03-11T15:08:23.977Z,92.73
2023-03-11T15:09:57.338Z,92.54
2023-03-11T15:11:30.393Z,91.53
2023-03-11T15:13:24.934Z,92.70
2023-03-11T15:14:58.186Z,92.86
2023-03-11T15:16:34.464Z,92.29
2023-03-11T15:18:32.429Z,92.18
2023-03-11T15:20:08.323Z,92.71
2023-03-11T15:21:48.000Z,92.62
2023-03-11T15:23:23.121Z,93.09
2023-03-11T15:24:58.625Z,93.34
2023-03-11T15:26:35.434Z,94.46
2023-03-11T15:28:30.231Z,94.42
2023-03-11T15:30:25.181Z,94.32
2023-03-11T15:31:59.252Z,94.93
2023-03-11T15:33:34.594Z,95.09
2023-03-11T15:35:12.704Z,95.29
2023-03-11T15:36:57.637Z,95.16
2023-03-11T15:38:31.027Z,95.53
2023-03-11T15:40:26.133Z,96.56
2023-03-11T15:42:16.766Z,97.05
2023-03-11T15:43:50.441Z,97.52
2023-03-11T15:45:23.737Z,97.82
2023-03-11T15:46:59.569Z,98.04
2023-03-11T15:48:32.825Z,98.78
2023-03-11T15:50:24.691Z,98.21
2023-03-11T15:51:59.979Z,99.17
2023-03-11T15:53:33.053Z,99.53
2023-03-11T15:55:06.814Z,98.65
2023-03-11T15:56:40.812Z,99.63
2023-03-11T15:58:20.069Z,99.53
2023-03-11T15:59:55.772Z,98.97
2023-03-11T16:01:30.582Z,98.74
2023-03-11T16:03:05.582Z,98.81
2023-03-11T16:04:40.922Z,99.16
2023-03-11T16:06:14.558Z,99.20
2023-03-11T16:07:48.014Z,100.00
2023-03-11T16:09:21.393Z,100.00
2023-03-11T16:10:54.917Z,100.00
2023-03-11T16:12:28.083Z,99.94
2023-03-11T16:14:01.512Z,100.00
2023-03-11T16:15:38.182Z,100.00
2023-03-11T16:17:14.976Z,100.00
2023-03-11T16:18:48.239Z,100.00
2023-03-11T16:20:23.049Z,100.00
2023-03-11T16:21:57.071Z,100.00
2023-03-11T16:23:50.710Z,100.00
2023-03-11T16:25:37.448Z,100.00
2023-03-11T16:27:15.833Z,100.00
2023-03-11T16:28:48.910Z,100.00
2023-03-11T16:30:22.941Z,100.00
2023-03-11T16:31:56.005Z,100.00
2023-03-11T16:33:29.614Z,100.00
2023-03-11T16:35:02.780Z,100.00
2023-03-11T16:36:36.128Z,100.00
2023-03-11T16:38:09.893Z,100.00
2023-03-11T16:39:43.258Z,100.00
2023-03-11T16:41:17.527Z,100.00
2023-03-11T16:42:50.528Z,100.00
2023-03-11T16:44:23.498Z,100.00
2023-03-11T16:45:56.988Z,100.00
2023-03-11T16:47:31.043Z,100.00
2023-03-11T16:49:05.795Z,100.00
2023-03-11T16:50:39.192Z,100.00
2023-03-11T16:52:12.461Z,100.00
2023-03-11T16:53:46.062Z,100.00
2023-03-11T16:55:19.791Z,100.00
2023-03-11T16:56:53.316Z,100.00
2023-03-11T16:58:26.998Z,100.00
2023-03-11T17:00:00.570Z,100.00
2023-03-11T17:01:42.843Z,100.00
2023-03-11T17:03:21.840Z,100.00
2023-03-11T17:04:56.651Z,100.00
2023-03-11T17:06:30.158Z,100.00
2023-03-11T17:08:04.744Z,100.00
2023-03-11T17:09:38.262Z,100.00
2023-03-11T17:11:20.715Z,100.00
2023-03-11T17:12:54.487Z,100.00
2023-03-11T17:14:28.128Z,100.00
2023-03-11T17:16:02.842Z,100.00
2023-03-11T17:17:36.469Z,100.00
2023-03-11T17:19:09.849Z,100.00
2023-03-11T17:20:45.979Z,100.00
2023-03-11T17:22:19.070Z,100.00
2023-03-11T17:23:53.556Z,100.00
2023-03-11T17:25:26.678Z,100.00
2023-03-11T17:26:59.809Z,100.00
2023-03-11T17:28:34.900Z,100.00
2023-03-11T17:30:08.782Z,100.00
2023-03-11T17:31:41.833Z,100.00
2023-03-11T17:33:14.766Z,100.00
2023-03-11T17:34:48.160Z,100.00
2023-03-11T17:36:21.558Z,100.00
2023-03-11T17:37:54.710Z,100.00
2023-03-11T17:39:27.828Z,100.00
2023-03-11T17:41:00.674Z,100.00
2023-03-11T17:42:33.833Z,100.00
2023-03-11T17:44:07.368Z,100.00
2023-03-11T17:45:41.079Z,100.00
2023-03-11T17:47:13.998Z,100.00
2023-03-11T17:48:49.162Z,100.00
2023-03-11T17:50:22.203Z,100.00
2023-03-11T17:51:55.106Z,100.00
2023-03-11T17:53:28.023Z,100.00
2023-03-11T17:55:00.998Z,100.00
2023-03-11T17:56:35.156Z,100.00
2023-03-11T17:58:08.842Z,100.00
2023-03-11T17:59:41.807Z,100.00
2023-03-11T18:01:17.941Z,100.00
2023-03-11T18:02:54.121Z,100.00
2023-03-11T18:04:27.965Z,100.00
2023-03-11T18:06:03.174Z,100.00
2023-03-11T18:07:39.352Z,100.00
2023-03-11T18:09:12.495Z,100.00
2023-03-11T18:10:53.384Z,100.00
2023-03-11T18:12:26.864Z,100.00
2023-03-11T18:14:00.710Z,100.00
2023-03-11T18:15:33.732Z,100.00
2023-03-11T18:17:06.819Z,100.00
2023-03-11T18:18:41.055Z,100.00
2023-03-11T18:20:18.266Z,100.00
2023-03-11T18:21:51.593Z,100.00
2023-03-11T18:23:24.815Z,100.00
2023-03-11T18:24:58.041Z,100.00
2023-03-11T18:26:32.162Z,100.00
2023-03-11T18:28:05.465Z,100.00
2023-03-11T18:29:38.352Z,100.00
2023-03-11T18:31:19.173Z,100.00
2023-03-11T18:32:52.660Z,100.00
2023-03-11T18:34:25.858Z,99.97
2023-03-11T18:35:58.662Z,99.74
2023-03-11T18:37:33.204Z,100.00
2023-03-11T18:39:07.049Z,100.00
2023-03-11T18:40:40.469Z,100.00
2023-03-11T18:42:14.463Z,100.00
2023-03-11T18:43:47.995Z,100.00
2023-03-11T18:45:21.067Z,100.00
2023-03-11T18:46:54.330Z,100.00
2023-03-11T18:48:27.875Z,100.00
2023-03-11T18:50:00.901Z,100.00
2023-03-11T18:51:33.893Z,100.00
2023-03-11T18:53:06.907Z,100.00
2023-03-11T18:54:40.024Z,100.00
2023-03-11T18:56:15.392Z,100.00
2023-03-11T18:57:48.772Z,100.00
2023-03-11T18:59:21.937Z,100.00
2023-03-11T19:00:54.867Z,100.00
2023-03-11T19:02:28.213Z,100.00
2023-03-11T19:04:01.631Z,100.00
2023-03-11T19:05:34.994Z,100.00
2023-03-11T19:07:08.724Z,100.00
2023-03-11T19:08:41.707Z,100.00
2023-03-11T19:10:17.863Z,100.00
2023-03-11T19:11:51.062Z,100.00
2023-03-11T19:13:26.542Z,100.00
2023-03-11T19:15:03.347Z,100.00
2023-03-11T19:16:36.868Z,100.00
2023-03-11T19:18:10.188Z,100.00
2023-03-11T19:19:46.721Z,100.00
2023-03-11T19:21:20.236Z,100.00
2023-03-11T19:22:58.377Z,100.00
2023-03-11T19:24:31.911Z,100.00
2023-03-11T19:26:05.943Z,100.00
2023-03-11T19:27:43.858Z,100.00
2023-03-11T19:29:17.505Z,100.00
2023-03-11T19:30:54.003Z,100.00
2023-03-11T19:32:27.306Z,100.00
2023-03-11T19:34:00.902Z,100.00
2023-03-11T19:35:36.582Z,100.00
2023-03-11T19:37:09.782Z,100.00
2023-03-11T19:38:43.451Z,100.00
2023-03-11T19:40:17.845Z,100.00
2023-03-11T19:41:51.669Z,100.00
2023-03-11T19:43:26.623Z,100.00
2023-03-11T19:44:59.544Z,100.00
2023-03-11T19:46:35.004Z,100.00
2023-03-11T19:48:08.056Z,100.00
2023-03-11T19:49:41.119Z,100.00
2023-03-11T19:51:14.261Z,100.00
2023-03-11T19:52:47.103Z,100.00
2023-03-11T19:54:20.699Z,100.00
2023-03-11T19:55:56.589Z,100.00
2023-03-11T19:57:29.844Z,100.00
2023-03-11T19:59:03.606Z,100.00
2023-03-11T20:00:36.908Z,100.00
2023-03-11T20:02:13.767Z,100.00
2023-03-11T20:03:46.875Z,100.00
2023-03-11T20:05:20.058Z,100.00
2023-03-11T20:06:53.409Z,100.00
2023-03-11T20:08:26.751Z,100.00
2023-03-11T20:09:59.637Z,100.00
2023-03-11T20:11:32.586Z,100.00
2023-03-11T20:13:05.815Z,100.00
2023-03-11T20:14:39.185Z,100.00
2023-03-11T20:16:18.088Z,100.00
2023-03-11T20:17:51.665Z,100.00
2023-03-11T20:19:25.058Z,100.00
2023-03-11T20:20:58.358Z,100.00
2023-03-11T20:22:31.533Z,100.00
2023-03-11T20:24:05.278Z,100.00
2023-03-11T20:25:40.269Z,100.00
2023-03-11T20:27:13.872Z,100.00
2023-03-11T20:28:47.396Z,100.00
2023-03-11T20:30:20.628Z,100.00
2023-03-11T20:31:53.894Z,100.00
2023-03-11T20:33:27.006Z,100.00